sensor_id;sensor_type;location;lat;lon;timestamp;temperature;humidity
18073;DHT22;9161;47.348;9.648;2023-07-28T00:03:45;14.40;99.90
18073;DHT22;9161;47.348;9.648;2023-07-28T00:08:47;14.20;99.90
18073;DHT22;9161;47.348;9.648;2023-07-28T00:13:50;14.00;99.90
18073;DHT22;9161;47.348;9.648;2023-07-28T00:18:52;14.00;99.90
18073;DHT22;9161;47.348;9.648;2023-07-28T00:23:54;14.00;99.90
18073;DHT22;9161;47.348;9.648;2023-07-28T00:28:58;13.90;99.90
18073;DHT22;9161;47.348;9.648;2023-07-28T00:34:01;13.80;99.90
18073;DHT22;9161;47.348;9.648;2023-07-28T00:39:04;13.80;99.90
18073;DHT22;9161;47.348;9.648;2023-07-28T00:44:07;13.90;99.90
18073;DHT22;9161;47.348;9.648;2023-07-28T00:49:09;13.80;99.90
18073;DHT22;9161;47.348;9.648;2023-07-28T00:54:11;13.80;99.90
18073;DHT22;9161;47.348;9.648;2023-07-28T00:59:15;13.70;99.90
18073;DHT22;9161;47.348;9.648;2023-07-28T01:04:18;13.70;99.90
18073;DHT22;9161;47.348;9.648;2023-07-28T01:09:24;13.60;99.90
18073;DHT22;9161;47.348;9.648;2023-07-28T01:14:32;13.60;99.90
18073;DHT22;9161;47.348;9.648;2023-07-28T01:19:34;13.50;99.90
18073;DHT22;9161;47.348;9.648;2023-07-28T01:24:45;13.40;99.90
18073;DHT22;9161;47.348;9.648;2023-07-28T01:29:52;13.30;99.90
18073;DHT22;9161;47.348;9.648;2023-07-28T01:34:54;13.20;99.90
18073;DHT22;9161;47.348;9.648;2023-07-28T01:39:58;13.30;99.90
18073;DHT22;9161;47.348;9.648;2023-07-28T01:45:02;13.40;99.90
18073;DHT22;9161;47.348;9.648;2023-07-28T01:50:05;14.10;99.90
18073;DHT22;9161;47.348;9.648;2023-07-28T01:55:08;14.90;99.90
18073;DHT22;9161;47.348;9.648;2023-07-28T02:00:12;16.40;99.90
18073;DHT22;9161;47.348;9.648;2023-07-28T02:05:14;16.70;99.90
18073;DHT22;9161;47.348;9.648;2023-07-28T02:10:19;16.40;99.90
18073;DHT22;9161;47.348;9.648;2023-07-28T02:15:23;16.10;99.90
18073;DHT22;9161;47.348;9.648;2023-07-28T02:20:25;15.80;99.90
18073;DHT22;9161;47.348;9.648;2023-07-28T02:25:30;15.60;99.90
18073;DHT22;9161;47.348;9.648;2023-07-28T02:30:34;15.50;99.90
18073;DHT22;9161;47.348;9.648;2023-07-28T02:35:36;16.30;99.90
18073;DHT22;9161;47.348;9.648;2023-07-28T02:40:38;17.90;99.90
18073;DHT22;9161;47.348;9.648;2023-07-28T02:45:41;18.10;99.90
18073;DHT22;9161;47.348;9.648;2023-07-28T02:50:45;18.10;99.90
18073;DHT22;9161;47.348;9.648;2023-07-28T02:55:48;18.00;99.90
18073;DHT22;9161;47.348;9.648;2023-07-28T03:00:52;18.00;99.90
18073;DHT22;9161;47.348;9.648;2023-07-28T03:05:54;17.80;99.90
18073;DHT22;9161;47.348;9.648;2023-07-28T03:10:56;17.70;99.90
18073;DHT22;9161;47.348;9.648;2023-07-28T03:16:00;17.80;99.90
18073;DHT22;9161;47.348;9.648;2023-07-28T03:21:02;17.90;99.90
18073;DHT22;9161;47.348;9.648;2023-07-28T03:26:04;17.50;99.90
18073;DHT22;9161;47.348;9.648;2023-07-28T03:31:07;17.20;99.90
18073;DHT22;9161;47.348;9.648;2023-07-28T03:36:10;16.90;99.90
18073;DHT22;9161;47.348;9.648;2023-07-28T03:41:12;16.80;99.90
18073;DHT22;9161;47.348;9.648;2023-07-28T03:46:15;17.60;99.90
18073;DHT22;9161;47.348;9.648;2023-07-28T03:51:18;18.20;99.90
18073;DHT22;9161;47.348;9.648;2023-07-28T03:56:20;18.50;99.90
18073;DHT22;9161;47.348;9.648;2023-07-28T04:01:24;18.50;99.90
18073;DHT22;9161;47.348;9.648;2023-07-28T04:06:39;18.20;99.90
18073;DHT22;9161;47.348;9.648;2023-07-28T04:11:42;17.80;99.90
18073;DHT22;9161;47.348;9.648;2023-07-28T04:16:45;17.50;99.90
18073;DHT22;9161;47.348;9.648;2023-07-28T04:21:48;17.20;99.90
18073;DHT22;9161;47.348;9.648;2023-07-28T04:26:49;17.00;99.90
18073;DHT22;9161;47.348;9.648;2023-07-28T04:31:53;16.80;99.90
18073;DHT22;9161;47.348;9.648;2023-07-28T04:36:55;16.60;99.90
18073;DHT22;9161;47.348;9.648;2023-07-28T04:41:59;16.50;99.90
18073;DHT22;9161;47.348;9.648;2023-07-28T04:47:02;16.50;99.90
18073;DHT22;9161;47.348;9.648;2023-07-28T04:52:05;16.70;99.90
18073;DHT22;9161;47.348;9.648;2023-07-28T04:57:07;16.70;99.90
18073;DHT22;9161;47.348;9.648;2023-07-28T05:02:10;16.60;99.90
18073;DHT22;9161;47.348;9.648;2023-07-28T05:07:12;16.50;99.90
18073;DHT22;9161;47.348;9.648;2023-07-28T05:12:15;16.40;99.90
18073;DHT22;9161;47.348;9.648;2023-07-28T05:17:18;16.40;99.90
18073;DHT22;9161;47.348;9.648;2023-07-28T05:22:23;16.30;99.90
18073;DHT22;9161;47.348;9.648;2023-07-28T05:27:25;16.30;99.90
18073;DHT22;9161;47.348;9.648;2023-07-28T05:32:28;16.60;99.90
18073;DHT22;9161;47.348;9.648;2023-07-28T05:37:30;17.00;99.90
18073;DHT22;9161;47.348;9.648;2023-07-28T05:42:33;17.20;99.90
18073;DHT22;9161;47.348;9.648;2023-07-28T05:47:36;17.20;99.90
18073;DHT22;9161;47.348;9.648;2023-07-28T05:52:39;17.20;99.90
18073;DHT22;9161;47.348;9.648;2023-07-28T05:57:41;17.20;99.90
18073;DHT22;9161;47.348;9.648;2023-07-28T06:02:44;17.30;99.90
18073;DHT22;9161;47.348;9.648;2023-07-28T06:07:46;17.30;99.90
18073;DHT22;9161;47.348;9.648;2023-07-28T06:12:48;17.30;99.90
18073;DHT22;9161;47.348;9.648;2023-07-28T06:17:52;17.30;99.90
18073;DHT22;9161;47.348;9.648;2023-07-28T06:22:54;17.40;99.90
18073;DHT22;9161;47.348;9.648;2023-07-28T06:27:56;17.30;99.90
18073;DHT22;9161;47.348;9.648;2023-07-28T06:32:59;17.40;99.90
18073;DHT22;9161;47.348;9.648;2023-07-28T06:38:04;17.40;99.90
18073;DHT22;9161;47.348;9.648;2023-07-28T06:43:06;17.40;99.90
18073;DHT22;9161;47.348;9.648;2023-07-28T06:48:09;17.50;99.90
18073;DHT22;9161;47.348;9.648;2023-07-28T06:53:12;17.60;99.90
18073;DHT22;9161;47.348;9.648;2023-07-28T06:58:14;17.60;99.90
18073;DHT22;9161;47.348;9.648;2023-07-28T07:03:19;17.60;99.90
18073;DHT22;9161;47.348;9.648;2023-07-28T07:08:21;17.60;99.90
18073;DHT22;9161;47.348;9.648;2023-07-28T07:13:23;17.70;99.90
18073;DHT22;9161;47.348;9.648;2023-07-28T07:18:27;17.90;99.90
18073;DHT22;9161;47.348;9.648;2023-07-28T07:23:29;18.10;99.90
18073;DHT22;9161;47.348;9.648;2023-07-28T07:28:30;18.40;99.90
18073;DHT22;9161;47.348;9.648;2023-07-28T07:33:34;18.80;99.90
18073;DHT22;9161;47.348;9.648;2023-07-28T07:38:37;18.80;99.90
18073;DHT22;9161;47.348;9.648;2023-07-28T07:43:39;18.90;99.90
18073;DHT22;9161;47.348;9.648;2023-07-28T07:48:43;18.70;99.90
18073;DHT22;9161;47.348;9.648;2023-07-28T07:53:45;19.00;99.90
18073;DHT22;9161;47.348;9.648;2023-07-28T07:58:47;19.20;99.90
18073;DHT22;9161;47.348;9.648;2023-07-28T08:03:50;19.30;99.90
18073;DHT22;9161;47.348;9.648;2023-07-28T08:08:53;19.50;99.90
18073;DHT22;9161;47.348;9.648;2023-07-28T08:13:57;19.60;99.90
18073;DHT22;9161;47.348;9.648;2023-07-28T08:19:01;19.90;99.90
18073;DHT22;9161;47.348;9.648;2023-07-28T08:24:05;20.20;99.90
18073;DHT22;9161;47.348;9.648;2023-07-28T08:29:07;20.50;99.90
18073;DHT22;9161;47.348;9.648;2023-07-28T08:34:11;20.90;99.90
18073;DHT22;9161;47.348;9.648;2023-07-28T08:39:13;21.40;99.90
18073;DHT22;9161;47.348;9.648;2023-07-28T08:44:15;21.10;99.90
18073;DHT22;9161;47.348;9.648;2023-07-28T08:49:19;21.30;99.90
18073;DHT22;9161;47.348;9.648;2023-07-28T08:54:22;21.30;99.90
18073;DHT22;9161;47.348;9.648;2023-07-28T08:59:25;22.00;99.90
18073;DHT22;9161;47.348;9.648;2023-07-28T09:04:29;21.80;99.90
18073;DHT22;9161;47.348;9.648;2023-07-28T09:09:32;22.20;99.90
18073;DHT22;9161;47.348;9.648;2023-07-28T09:14:35;22.30;99.90
18073;DHT22;9161;47.348;9.648;2023-07-28T09:19:52;22.70;99.90
18073;DHT22;9161;47.348;9.648;2023-07-28T09:24:55;22.80;99.90
18073;DHT22;9161;47.348;9.648;2023-07-28T09:29:58;24.10;99.90
18073;DHT22;9161;47.348;9.648;2023-07-28T09:35:08;24.70;99.90
18073;DHT22;9161;47.348;9.648;2023-07-28T09:40:12;25.00;99.90
18073;DHT22;9161;47.348;9.648;2023-07-28T09:45:16;25.20;99.90
18073;DHT22;9161;47.348;9.648;2023-07-28T09:50:40;26.20;99.90
18073;DHT22;9161;47.348;9.648;2023-07-28T09:55:43;26.50;99.90
18073;DHT22;9161;47.348;9.648;2023-07-28T10:00:46;26.90;99.90
18073;DHT22;9161;47.348;9.648;2023-07-28T10:05:50;27.00;99.90
18073;DHT22;9161;47.348;9.648;2023-07-28T10:10:52;26.60;99.90
18073;DHT22;9161;47.348;9.648;2023-07-28T10:15:55;26.50;99.90
18073;DHT22;9161;47.348;9.648;2023-07-28T10:21:04;26.90;99.90
18073;DHT22;9161;47.348;9.648;2023-07-28T10:26:07;27.30;99.90
18073;DHT22;9161;47.348;9.648;2023-07-28T10:31:11;28.90;99.90
18073;DHT22;9161;47.348;9.648;2023-07-28T10:36:17;29.60;99.90
18073;DHT22;9161;47.348;9.648;2023-07-28T10:41:19;29.00;99.90
18073;DHT22;9161;47.348;9.648;2023-07-28T10:46:23;29.10;99.90
18073;DHT22;9161;47.348;9.648;2023-07-28T10:51:26;28.50;99.90
18073;DHT22;9161;47.348;9.648;2023-07-28T10:56:34;29.70;99.90
18073;DHT22;9161;47.348;9.648;2023-07-28T11:01:38;30.20;99.90
18073;DHT22;9161;47.348;9.648;2023-07-28T11:06:43;30.30;99.90
18073;DHT22;9161;47.348;9.648;2023-07-28T11:11:46;30.20;99.90
18073;DHT22;9161;47.348;9.648;2023-07-28T11:16:49;29.90;99.90
18073;DHT22;9161;47.348;9.648;2023-07-28T11:21:53;29.20;99.90
18073;DHT22;9161;47.348;9.648;2023-07-28T11:26:57;28.30;99.90
18073;DHT22;9161;47.348;9.648;2023-07-28T11:32:00;27.50;99.90
18073;DHT22;9161;47.348;9.648;2023-07-28T11:37:04;27.50;99.90
18073;DHT22;9161;47.348;9.648;2023-07-28T11:42:09;28.10;99.90
18073;DHT22;9161;47.348;9.648;2023-07-28T11:47:17;28.70;99.90
18073;DHT22;9161;47.348;9.648;2023-07-28T11:52:20;29.20;99.90
18073;DHT22;9161;47.348;9.648;2023-07-28T11:57:26;30.60;99.90
18073;DHT22;9161;47.348;9.648;2023-07-28T12:02:30;31.60;99.90
18073;DHT22;9161;47.348;9.648;2023-07-28T12:07:36;32.00;99.90
18073;DHT22;9161;47.348;9.648;2023-07-28T12:12:43;31.80;99.90
18073;DHT22;9161;47.348;9.648;2023-07-28T12:18:11;31.20;99.90
18073;DHT22;9161;47.348;9.648;2023-07-28T12:23:19;30.30;99.90
18073;DHT22;9161;47.348;9.648;2023-07-28T12:28:24;29.60;99.90
18073;DHT22;9161;47.348;9.648;2023-07-28T12:33:27;29.10;99.90
18073;DHT22;9161;47.348;9.648;2023-07-28T12:38:33;28.00;99.90
18073;DHT22;9161;47.348;9.648;2023-07-28T12:43:38;27.80;99.90
18073;DHT22;9161;47.348;9.648;2023-07-28T12:48:43;30.00;99.90
18073;DHT22;9161;47.348;9.648;2023-07-28T12:53:49;32.40;99.90
18073;DHT22;9161;47.348;9.648;2023-07-28T12:58:51;33.50;99.90
18073;DHT22;9161;47.348;9.648;2023-07-28T13:03:56;34.90;99.90
18073;DHT22;9161;47.348;9.648;2023-07-28T13:09:00;36.50;99.90
18073;DHT22;9161;47.348;9.648;2023-07-28T13:14:05;34.00;99.90
18073;DHT22;9161;47.348;9.648;2023-07-28T13:19:07;32.10;99.90
18073;DHT22;9161;47.348;9.648;2023-07-28T13:24:11;34.60;99.90
18073;DHT22;9161;47.348;9.648;2023-07-28T13:29:13;36.00;99.90
18073;DHT22;9161;47.348;9.648;2023-07-28T13:34:16;34.60;99.90
18073;DHT22;9161;47.348;9.648;2023-07-28T13:39:19;34.60;99.90
18073;DHT22;9161;47.348;9.648;2023-07-28T13:44:21;34.10;96.60
18073;DHT22;9161;47.348;9.648;2023-07-28T13:49:31;34.70;98.10
18073;DHT22;9161;47.348;9.648;2023-07-28T13:54:52;34.90;97.20
18073;DHT22;9161;47.348;9.648;2023-07-28T13:59:58;36.90;96.80
18073;DHT22;9161;47.348;9.648;2023-07-28T14:05:00;37.40;95.10
18073;DHT22;9161;47.348;9.648;2023-07-28T14:10:04;36.70;92.90
18073;DHT22;9161;47.348;9.648;2023-07-28T14:15:08;37.10;94.70
18073;DHT22;9161;47.348;9.648;2023-07-28T14:20:11;38.20;90.90
18073;DHT22;9161;47.348;9.648;2023-07-28T14:25:15;39.10;92.20
18073;DHT22;9161;47.348;9.648;2023-07-28T14:30:17;39.00;92.50
18073;DHT22;9161;47.348;9.648;2023-07-28T14:35:20;40.20;89.00
18073;DHT22;9161;47.348;9.648;2023-07-28T14:40:47;37.80;93.00
18073;DHT22;9161;47.348;9.648;2023-07-28T14:45:50;36.00;94.30
18073;DHT22;9161;47.348;9.648;2023-07-28T14:50:52;35.10;94.30
18073;DHT22;9161;47.348;9.648;2023-07-28T14:55:55;35.10;93.50
18073;DHT22;9161;47.348;9.648;2023-07-28T15:00:58;34.20;93.30
18073;DHT22;9161;47.348;9.648;2023-07-28T15:06:02;32.40;95.00
18073;DHT22;9161;47.348;9.648;2023-07-28T15:11:05;30.80;94.80
18073;DHT22;9161;47.348;9.648;2023-07-28T15:16:08;29.10;98.80
18073;DHT22;9161;47.348;9.648;2023-07-28T15:21:10;28.90;99.90
18073;DHT22;9161;47.348;9.648;2023-07-28T15:26:13;28.80;99.90
18073;DHT22;9161;47.348;9.648;2023-07-28T15:31:15;28.30;99.90
18073;DHT22;9161;47.348;9.648;2023-07-28T15:36:18;28.10;99.90
18073;DHT22;9161;47.348;9.648;2023-07-28T15:41:21;27.70;99.90
18073;DHT22;9161;47.348;9.648;2023-07-28T15:46:23;27.10;99.90
18073;DHT22;9161;47.348;9.648;2023-07-28T15:51:26;26.60;99.90
18073;DHT22;9161;47.348;9.648;2023-07-28T15:56:29;26.20;99.90
18073;DHT22;9161;47.348;9.648;2023-07-28T16:01:32;25.80;99.90
18073;DHT22;9161;47.348;9.648;2023-07-28T16:06:35;25.50;99.90
18073;DHT22;9161;47.348;9.648;2023-07-28T16:11:39;25.20;99.90
18073;DHT22;9161;47.348;9.648;2023-07-28T16:16:43;24.70;99.90
18073;DHT22;9161;47.348;9.648;2023-07-28T16:21:46;23.80;99.90
18073;DHT22;9161;47.348;9.648;2023-07-28T16:26:52;23.10;99.90
18073;DHT22;9161;47.348;9.648;2023-07-28T16:31:54;22.80;99.90
18073;DHT22;9161;47.348;9.648;2023-07-28T16:36:58;22.50;99.90
18073;DHT22;9161;47.348;9.648;2023-07-28T16:42:02;23.00;99.90
18073;DHT22;9161;47.348;9.648;2023-07-28T16:47:08;24.10;99.90
18073;DHT22;9161;47.348;9.648;2023-07-28T16:52:14;24.00;99.90
18073;DHT22;9161;47.348;9.648;2023-07-28T16:57:18;23.20;99.90
18073;DHT22;9161;47.348;9.648;2023-07-28T17:02:20;22.50;99.90
18073;DHT22;9161;47.348;9.648;2023-07-28T17:07:23;21.90;99.90
18073;DHT22;9161;47.348;9.648;2023-07-28T17:12:27;22.00;99.90
18073;DHT22;9161;47.348;9.648;2023-07-28T17:17:30;22.40;99.90
18073;DHT22;9161;47.348;9.648;2023-07-28T17:22:33;23.00;99.90
18073;DHT22;9161;47.348;9.648;2023-07-28T17:27:38;22.70;99.90
18073;DHT22;9161;47.348;9.648;2023-07-28T17:32:43;22.90;99.90
18073;DHT22;9161;47.348;9.648;2023-07-28T17:37:46;23.30;99.90
18073;DHT22;9161;47.348;9.648;2023-07-28T17:42:51;23.10;99.90
18073;DHT22;9161;47.348;9.648;2023-07-28T17:47:55;23.00;99.90
18073;DHT22;9161;47.348;9.648;2023-07-28T17:52:59;22.90;99.90
18073;DHT22;9161;47.348;9.648;2023-07-28T17:58:04;22.70;99.90
18073;DHT22;9161;47.348;9.648;2023-07-28T18:03:08;22.30;99.90
18073;DHT22;9161;47.348;9.648;2023-07-28T18:08:13;22.10;99.90
18073;DHT22;9161;47.348;9.648;2023-07-28T18:13:19;22.00;99.90
18073;DHT22;9161;47.348;9.648;2023-07-28T18:18:24;21.60;99.90
18073;DHT22;9161;47.348;9.648;2023-07-28T18:23:29;21.50;99.90
18073;DHT22;9161;47.348;9.648;2023-07-28T18:28:35;21.50;99.90
18073;DHT22;9161;47.348;9.648;2023-07-28T18:33:40;21.20;99.90
18073;DHT22;9161;47.348;9.648;2023-07-28T18:38:44;21.00;99.90
18073;DHT22;9161;47.348;9.648;2023-07-28T18:43:50;20.40;99.90
18073;DHT22;9161;47.348;9.648;2023-07-28T18:48:53;20.50;99.90
18073;DHT22;9161;47.348;9.648;2023-07-28T18:53:58;20.40;99.90
18073;DHT22;9161;47.348;9.648;2023-07-28T18:59:03;20.40;99.90
18073;DHT22;9161;47.348;9.648;2023-07-28T19:04:08;20.30;99.90
18073;DHT22;9161;47.348;9.648;2023-07-28T19:09:13;20.30;99.90
18073;DHT22;9161;47.348;9.648;2023-07-28T19:14:19;20.30;99.90
18073;DHT22;9161;47.348;9.648;2023-07-28T19:19:24;20.20;99.90
18073;DHT22;9161;47.348;9.648;2023-07-28T19:24:29;20.10;99.90
18073;DHT22;9161;47.348;9.648;2023-07-28T19:29:35;20.00;99.90
18073;DHT22;9161;47.348;9.648;2023-07-28T19:34:40;19.90;99.90
18073;DHT22;9161;47.348;9.648;2023-07-28T19:39:45;20.00;99.90
18073;DHT22;9161;47.348;9.648;2023-07-28T19:44:53;20.00;99.90
18073;DHT22;9161;47.348;9.648;2023-07-28T19:50:00;19.80;99.90
18073;DHT22;9161;47.348;9.648;2023-07-28T19:55:14;19.70;99.90
18073;DHT22;9161;47.348;9.648;2023-07-28T20:00:21;19.80;99.90
18073;DHT22;9161;47.348;9.648;2023-07-28T20:05:25;19.80;99.90
18073;DHT22;9161;47.348;9.648;2023-07-28T20:10:34;19.80;99.90
18073;DHT22;9161;47.348;9.648;2023-07-28T20:15:41;19.80;99.90
18073;DHT22;9161;47.348;9.648;2023-07-28T20:20:50;19.80;99.90
18073;DHT22;9161;47.348;9.648;2023-07-28T20:25:55;19.70;99.90
18073;DHT22;9161;47.348;9.648;2023-07-28T20:31:03;19.70;99.90
18073;DHT22;9161;47.348;9.648;2023-07-28T20:36:13;19.60;99.90
18073;DHT22;9161;47.348;9.648;2023-07-28T20:41:20;19.50;99.90
18073;DHT22;9161;47.348;9.648;2023-07-28T20:46:28;19.40;99.90
18073;DHT22;9161;47.348;9.648;2023-07-28T20:51:35;19.50;99.90
18073;DHT22;9161;47.348;9.648;2023-07-28T20:56:40;19.20;99.90
18073;DHT22;9161;47.348;9.648;2023-07-28T21:01:46;19.30;99.90
18073;DHT22;9161;47.348;9.648;2023-07-28T21:06:48;19.30;99.90
18073;DHT22;9161;47.348;9.648;2023-07-28T21:11:51;19.30;99.90
18073;DHT22;9161;47.348;9.648;2023-07-28T21:16:55;19.20;99.90
18073;DHT22;9161;47.348;9.648;2023-07-28T21:21:58;19.10;99.90
18073;DHT22;9161;47.348;9.648;2023-07-28T21:27:00;19.20;99.90
18073;DHT22;9161;47.348;9.648;2023-07-28T21:32:04;19.20;99.90
18073;DHT22;9161;47.348;9.648;2023-07-28T21:37:07;19.00;99.90
18073;DHT22;9161;47.348;9.648;2023-07-28T21:42:10;19.00;99.90
18073;DHT22;9161;47.348;9.648;2023-07-28T21:47:14;18.80;99.90
18073;DHT22;9161;47.348;9.648;2023-07-28T21:52:16;18.80;99.90
18073;DHT22;9161;47.348;9.648;2023-07-28T21:57:19;18.70;99.90
18073;DHT22;9161;47.348;9.648;2023-07-28T22:02:24;18.70;99.90
18073;DHT22;9161;47.348;9.648;2023-07-28T22:07:27;18.50;99.90
18073;DHT22;9161;47.348;9.648;2023-07-28T22:12:30;18.60;99.90
18073;DHT22;9161;47.348;9.648;2023-07-28T22:17:33;18.60;99.90
18073;DHT22;9161;47.348;9.648;2023-07-28T22:22:36;18.70;99.90
18073;DHT22;9161;47.348;9.648;2023-07-28T22:27:38;18.70;99.90
18073;DHT22;9161;47.348;9.648;2023-07-28T22:32:42;18.60;99.90
18073;DHT22;9161;47.348;9.648;2023-07-28T22:37:44;18.60;99.90
18073;DHT22;9161;47.348;9.648;2023-07-28T22:42:46;18.50;99.90
18073;DHT22;9161;47.348;9.648;2023-07-28T22:47:49;18.50;99.90
18073;DHT22;9161;47.348;9.648;2023-07-28T22:52:51;18.40;99.90
18073;DHT22;9161;47.348;9.648;2023-07-28T22:57:54;18.30;99.90
18073;DHT22;9161;47.348;9.648;2023-07-28T23:02:58;18.00;99.90
18073;DHT22;9161;47.348;9.648;2023-07-28T23:08:00;18.00;99.90
18073;DHT22;9161;47.348;9.648;2023-07-28T23:13:02;18.10;99.90
18073;DHT22;9161;47.348;9.648;2023-07-28T23:18:06;18.10;99.90
18073;DHT22;9161;47.348;9.648;2023-07-28T23:23:09;18.10;99.90
18073;DHT22;9161;47.348;9.648;2023-07-28T23:28:12;18.10;99.90
18073;DHT22;9161;47.348;9.648;2023-07-28T23:33:15;18.00;99.90
18073;DHT22;9161;47.348;9.648;2023-07-28T23:38:18;17.80;99.90
18073;DHT22;9161;47.348;9.648;2023-07-28T23:43:21;17.70;99.90
18073;DHT22;9161;47.348;9.648;2023-07-28T23:48:27;17.70;99.90
18073;DHT22;9161;47.348;9.648;2023-07-28T23:53:30;17.70;99.90
18073;DHT22;9161;47.348;9.648;2023-07-28T23:58:32;17.60;99.90
